Kapetan Christos — SVA7366 — position and weather

sailwx.info

Track history (hours):
 
Tides and Currents Weather Stations Pressure Air Temp Water Temp Dewpoint Dewpoint Depression Visibility Wind Speed Wind Dir Waves Ship Positions

Kapetan Christos

Last reported at 2018-Feb-20 07:31 UTC. Time now 2018-Feb-20 07:47 UTC.
Position N 38°02' E 023°33'.

Length 98 m; draft 3.8 m.

Type: Cargo ship. MMSI: 241495000.

Date/timePositionNaut miles runAvg speedWind from/ knotsBaromVisibWave heightAir tempDewpointWater temp
2018-Feb-20 07:31N 38°02' E 023°33'0 0.0
2018-Feb-20 07:00N 38°02' E 023°33'0 0.0
2018-Feb-20 06:30N 38°02' E 023°33'0 0.0
2018-Feb-20 06:00N 38°02' E 023°33'0 0.0
2018-Feb-20 05:31N 38°02' E 023°33'0 0.0
2018-Feb-20 05:01N 38°02' E 023°33'0 0.0
2018-Feb-20 04:30N 38°02' E 023°33'0 0.0
2018-Feb-20 04:00N 38°02' E 023°33'0 0.0
2018-Feb-20 03:30N 38°02' E 023°33'0 0.0
2018-Feb-20 03:00N 38°02' E 023°33'0 0.0
2018-Feb-20 02:30N 38°02' E 023°33'0 0.0
2018-Feb-20 02:00N 38°02' E 023°33'0 0.0
2018-Feb-20 01:30N 38°02' E 023°33'0 0.0
2018-Feb-20 01:00N 38°02' E 023°33'0 0.0
2018-Feb-20 00:30N 38°02' E 023°33'0 0.0
2018-Feb-20 00:01N 38°02' E 023°33'0 0.0
2018-Feb-19 23:31N 38°02' E 023°33'0 0.0
2018-Feb-19 23:00N 38°02' E 023°33'0 0.0
2018-Feb-19 22:30N 38°02' E 023°33'0 0.0
2018-Feb-19 22:00N 38°02' E 023°33'0 0.0
2018-Feb-19 21:30N 38°02' E 023°33'0 0.0
2018-Feb-19 21:01N 38°02' E 023°33'0 0.0
2018-Feb-19 20:30N 38°02' E 023°33'0 0.0
2018-Feb-19 20:00N 38°02' E 023°33'0 0.0
2018-Feb-19 19:30N 38°02' E 023°33'0 0.0
2018-Feb-19 19:00N 38°02' E 023°33'0 0.0
2018-Feb-19 18:30N 38°02' E 023°33'0 0.0
2018-Feb-19 18:00N 38°02' E 023°33'0 0.0
2018-Feb-19 17:31N 38°02' E 023°33'0 0.0
2018-Feb-19 17:00N 38°02' E 023°33'0 0.0
2018-Feb-19 16:30N 38°02' E 023°33'0 0.0
2018-Feb-19 16:00N 38°02' E 023°33'0 0.0
2018-Feb-19 15:31N 38°02' E 023°33'0 0.0
2018-Feb-19 15:00N 38°02' E 023°33'0 0.0
2018-Feb-19 14:30N 38°02' E 023°33'0 0.0
2018-Feb-19 14:01N 38°02' E 023°33'0 0.0
2018-Feb-19 13:30N 38°02' E 023°33'0 0.0
2018-Feb-19 13:01N 38°02' E 023°33'0 0.0
2018-Feb-19 12:30N 38°02' E 023°33'0 0.0
2018-Feb-19 12:00N 38°02' E 023°33'0 0.0
2018-Feb-19 11:30N 38°02' E 023°33'0 0.0
2018-Feb-19 11:00N 38°02' E 023°33'0 0.0
2018-Feb-19 10:30N 38°02' E 023°33'0 0.0
2018-Feb-19 10:01N 38°02' E 023°33'0 0.0
2018-Feb-19 09:30N 38°02' E 023°33'0 0.0
2018-Feb-19 09:00N 38°02' E 023°33'0 0.0
2018-Feb-19 08:31N 38°02' E 023°33'0 0.0
2018-Feb-19 08:01N 38°02' E 023°33'0 0.0
2018-Feb-19 07:30N 38°02' E 023°33'0 0.0
2018-Feb-19 07:00N 38°02' E 023°33'0 0.0
2018-Feb-19 06:31N 38°02' E 023°33'0 0.0
2018-Feb-19 06:00N 38°02' E 023°33'0 0.0
2018-Feb-19 05:31N 38°02' E 023°33'0 0.0
2018-Feb-19 05:00N 38°02' E 023°33'0 0.0
2018-Feb-19 04:30N 38°02' E 023°33'0 0.0
2018-Feb-19 04:01N 38°02' E 023°33'3 5.5
2018-Feb-19 03:31N 38°01' E 023°29'5 9.9
2018-Feb-19 03:00N 37°57' E 023°25'510.6
2018-Feb-19 02:31N 37°52' E 023°25'713.5
2018-Feb-19 02:01N 37°49' E 023°33'713.4
2018-Feb-19 01:30N 37°45' E 023°40'713.3
2018-Feb-19 01:00N 37°40' E 023°46'4713.5
2018-Feb-18 21:31N 37°31' E 024°44'013.6
2018-Feb-18 21:30N 37°31' E 024°44'813.4
2018-Feb-18 20:57N 37°31' E 024°54'511.8
2018-Feb-18 20:30N 37°27' E 024°57'1 1.8
2018-Feb-18 20:00N 37°26' E 024°57'510.7
2018-Feb-18 19:30N 37°27' E 025°03'13 8.0
2018-Feb-18 17:53N 37°28' E 025°19'0 0.0
2018-Feb-18 17:30N 37°28' E 025°19'2 2.2
2018-Feb-18 16:31N 37°26' E 025°17'013.3
2018-Feb-18 16:30N 37°26' E 025°17'713.0
2018-Feb-18 16:00N 37°20' E 025°15'713.7
2018-Feb-18 15:30N 37°14' E 025°12'713.8
2018-Feb-18 14:59N 37°07' E 025°08'2 2.5
2018-Feb-18 14:14N 37°05' E 025°09'2 9.7
2018-Feb-18 14:00N 37°06' E 025°06'5 0.4
2018-Feb-18 02:59N 37°03' E 025°01'612.2
2018-Feb-18 02:30N 37°05' E 025°08'1 1.2
2018-Feb-18 01:51N 37°05' E 025°09'610.0
2018-Feb-18 01:15N 37°11' E 025°10'314.0
2018-Feb-18 01:00N 37°14' E 025°12'714.0
2018-Feb-18 00:30N 37°21' E 025°16'713.8
2018-Feb-18 00:00N 37°27' E 025°18'1 2.9
2018-Feb-17 23:30N 37°28' E 025°19'0 0.0
2018-Feb-17 23:00N 37°28' E 025°19'3 5.8
2018-Feb-17 22:30N 37°28' E 025°16'612.4
2018-Feb-17 22:00N 37°27' E 025°08'612.8
2018-Feb-17 21:30N 37°26' E 025°00'3 5.1
2018-Feb-17 20:57N 37°26' E 024°56'1 3.3
2018-Feb-17 20:30N 37°28' E 024°57'611.6
2018-Feb-17 20:00N 37°31' E 024°52'5012.3
2018-Feb-17 15:57N 37°38' E 023°49'612.7
2018-Feb-17 15:30N 37°40' E 023°43'713.3
2018-Feb-17 15:00N 37°46' E 023°39'713.5
2018-Feb-17 14:31N 37°52' E 023°36'611.5
2018-Feb-17 14:00N 37°58' E 023°33'4 8.8
2018-Feb-17 13:30N 38°02' E 023°33'0 0.0
2018-Feb-17 12:59N 38°02' E 023°33'0 0.0
2018-Feb-17 12:29N 38°02' E 023°33'0 0.0
2018-Feb-17 11:59N 38°02' E 023°33'0 0.0
2018-Feb-17 11:29N 38°02' E 023°33'0 0.0
2018-Feb-17 10:59N 38°02' E 023°33'0 0.0
2018-Feb-17 10:29N 38°02' E 023°33'0 0.0
2018-Feb-17 09:59N 38°02' E 023°33'0 0.0
2018-Feb-17 09:29N 38°02' E 023°33'0 0.0
2018-Feb-17 08:59N 38°02' E 023°33'0 0.0
2018-Feb-17 08:29N 38°02' E 023°33'0 0.0
2018-Feb-17 07:59N 38°02' E 023°33'0 0.0
2018-Feb-17 07:29N 38°02' E 023°33'0 0.0
2018-Feb-17 06:59N 38°02' E 023°33'0 0.0
2018-Feb-17 06:29N 38°02' E 023°33'0 0.0
2018-Feb-17 05:59N 38°02' E 023°33'0 0.0
2018-Feb-17 05:26N 38°02' E 023°33'0 0.0
2018-Feb-17 04:59N 38°02' E 023°33'0 0.0
2018-Feb-17 04:29N 38°02' E 023°33'0 0.0
2018-Feb-17 03:59N 38°02' E 023°33'0 0.0
2018-Feb-17 03:29N 38°02' E 023°33'0 0.0
2018-Feb-17 02:59N 38°02' E 023°33'0 0.0
2018-Feb-17 02:29N 38°02' E 023°33'0 0.0
2018-Feb-17 01:59N 38°02' E 023°33'0 0.0
2018-Feb-17 01:29N 38°02' E 023°33'0 0.0
2018-Feb-17 00:59N 38°02' E 023°33'0 0.0
2018-Feb-17 00:26N 38°02' E 023°33'0 0.0
2018-Feb-16 23:59N 38°02' E 023°33'0 0.0
2018-Feb-16 23:29N 38°02' E 023°33'0 0.0
2018-Feb-16 22:59N 38°02' E 023°33'0 0.0
2018-Feb-16 22:29N 38°02' E 023°33'0 0.0
2018-Feb-16 21:59N 38°02' E 023°33'0 0.0
2018-Feb-16 21:29N 38°02' E 023°33'0 0.0
2018-Feb-16 20:59N 38°02' E 023°33'0 0.0
2018-Feb-16 20:29N 38°02' E 023°33'0 0.0
2018-Feb-16 19:59N 38°02' E 023°33'0 0.0
2018-Feb-16 19:29N 38°02' E 023°33'0 0.0
2018-Feb-16 18:59N 38°02' E 023°33'0 0.0
2018-Feb-16 18:29N 38°02' E 023°33'0 0.0
2018-Feb-16 17:59N 38°02' E 023°33'0 0.0
2018-Feb-16 17:29N 38°02' E 023°33'0 0.0
2018-Feb-16 16:59N 38°02' E 023°33'0 0.0
2018-Feb-16 16:24N 38°02' E 023°33'0 0.0
2018-Feb-16 15:59N 38°02' E 023°33'0 0.0
2018-Feb-16 15:29N 38°02' E 023°33'0 0.0
2018-Feb-16 14:59N 38°02' E 023°33'0 0.0
2018-Feb-16 14:29N 38°02' E 023°33'0 0.0
2018-Feb-16 13:57N 38°02' E 023°33'0 0.0
2018-Feb-16 13:29N 38°02' E 023°33'0 0.0
2018-Feb-16 12:53N 38°02' E 023°33'0 0.0
2018-Feb-16 12:29N 38°02' E 023°33'0 0.0
2018-Feb-16 11:59N 38°02' E 023°33'0 0.0
2018-Feb-16 11:29N 38°02' E 023°33'0 0.0
2018-Feb-16 10:59N 38°02' E 023°33'0 0.0
2018-Feb-16 10:29N 38°02' E 023°33'0 0.0
2018-Feb-16 09:59N 38°02' E 023°33'0 0.0
2018-Feb-16 09:29N 38°02' E 023°33'0 0.0
2018-Feb-16 08:59N 38°02' E 023°33'0 0.0
2018-Feb-16 08:29N 38°02' E 023°33'0 0.0
2018-Feb-16 07:59N 38°02' E 023°33'0 0.0
2018-Feb-16 07:29N 38°02' E 023°33'0 0.0
2018-Feb-16 06:59N 38°02' E 023°33'0 0.0
2018-Feb-16 06:29N 38°02' E 023°33'0 0.0
2018-Feb-16 05:59N 38°02' E 023°33'0 0.0
2018-Feb-16 05:29N 38°02' E 023°33'0 0.0
2018-Feb-16 04:59N 38°02' E 023°33'0 0.0
2018-Feb-16 04:29N 38°02' E 023°33'0 0.0
2018-Feb-16 03:59N 38°02' E 023°33'0 0.0
2018-Feb-16 03:29N 38°02' E 023°33'0 0.0
2018-Feb-16 02:59N 38°02' E 023°33'0 0.0
2018-Feb-16 02:29N 38°02' E 023°33'0 0.0
2018-Feb-16 01:59N 38°02' E 023°33'0 0.0
2018-Feb-16 01:29N 38°02' E 023°33'0 0.0
2018-Feb-16 00:59N 38°02' E 023°33'0 0.0
2018-Feb-16 00:29N 38°02' E 023°33'0 0.0
2018-Feb-15 23:59N 38°02' E 023°33'0 0.0
2018-Feb-15 23:29N 38°02' E 023°33'0 0.0
2018-Feb-15 22:59N 38°02' E 023°33'0 0.0
2018-Feb-15 22:29N 38°02' E 023°33'0 0.0
2018-Feb-15 21:59N 38°02' E 023°33'0 0.0
2018-Feb-15 21:29N 38°02' E 023°33'0 0.0
2018-Feb-15 20:59N 38°02' E 023°33'0 0.0
2018-Feb-15 20:29N 38°02' E 023°33'0 0.0
2018-Feb-15 19:59N 38°02' E 023°33'0 0.0
2018-Feb-15 19:29N 38°02' E 023°33'0 0.0
2018-Feb-15 18:59N 38°02' E 023°33'0 0.0
2018-Feb-15 18:29N 38°02' E 023°33'0 0.0
2018-Feb-15 17:59N 38°02' E 023°33'0 0.0
2018-Feb-15 17:29N 38°02' E 023°33'0 0.0
2018-Feb-15 16:59N 38°02' E 023°33'0 0.0
2018-Feb-15 16:29N 38°02' E 023°33'0 0.0
2018-Feb-15 15:59N 38°02' E 023°33'0 0.0
2018-Feb-15 15:29N 38°02' E 023°33'0 0.0
2018-Feb-15 14:53N 38°02' E 023°33'0 0.0
2018-Feb-15 14:29N 38°02' E 023°33'0 0.0
2018-Feb-15 13:59N 38°02' E 023°33'0 0.0
2018-Feb-15 13:29N 38°02' E 023°33'0 0.0
2018-Feb-15 12:59N 38°02' E 023°33'0 0.0
2018-Feb-15 12:29N 38°02' E 023°33'0 0.0
2018-Feb-15 11:59N 38°02' E 023°33'0 0.0
2018-Feb-15 11:29N 38°02' E 023°33'0 0.0
2018-Feb-15 10:59N 38°02' E 023°33'0 0.0
2018-Feb-15 10:29N 38°02' E 023°33'0 0.0
2018-Feb-15 09:59N 38°02' E 023°33'0 0.0
2018-Feb-15 09:29N 38°02' E 023°33'0 0.0
2018-Feb-15 08:59N 38°02' E 023°33'0 0.0
2018-Feb-15 08:26N 38°02' E 023°33'0 0.0
2018-Feb-15 07:59N 38°02' E 023°33'0 0.0
2018-Feb-15 07:29N 38°02' E 023°33'0 0.0
2018-Feb-15 06:59N 38°02' E 023°33'0 0.0
2018-Feb-15 06:23N 38°02' E 023°33'0 0.0
2018-Feb-15 05:59N 38°02' E 023°33'0 0.0
2018-Feb-15 05:29N 38°02' E 023°33'0 0.0
2018-Feb-15 04:59N 38°02' E 023°33'0 0.0
2018-Feb-15 04:29N 38°02' E 023°33'0 0.0
2018-Feb-15 03:59N 38°02' E 023°33'0 0.0
2018-Feb-15 03:29N 38°02' E 023°33'0 0.0
2018-Feb-15 02:59N 38°02' E 023°33'0 0.0
2018-Feb-15 02:29N 38°02' E 023°33'0 0.0
2018-Feb-15 01:59N 38°02' E 023°33'0 0.0
2018-Feb-15 01:29N 38°02' E 023°33'0 0.0
2018-Feb-15 00:59N 38°02' E 023°33'0 0.0
2018-Feb-15 00:29N 38°02' E 023°33'0 0.0
2018-Feb-14 23:59N 38°02' E 023°33'0 0.0
2018-Feb-14 23:29N 38°02' E 023°33'0 0.0
2018-Feb-14 22:59N 38°02' E 023°33'0 0.0
2018-Feb-14 22:29N 38°02' E 023°33'0 0.0
2018-Feb-14 21:59N 38°02' E 023°33'0 0.0
2018-Feb-14 21:29N 38°02' E 023°33'0 0.0
2018-Feb-14 20:59N 38°02' E 023°33'0 0.0
2018-Feb-14 20:29N 38°02' E 023°33'0 0.0
2018-Feb-14 19:59N 38°02' E 023°33'0 0.0
2018-Feb-14 19:29N 38°02' E 023°33'0 0.0
2018-Feb-14 18:59N 38°02' E 023°33'0 0.0
2018-Feb-14 18:29N 38°02' E 023°33'0 0.0
2018-Feb-14 17:59N 38°02' E 023°33'0 0.0
2018-Feb-14 17:29N 38°02' E 023°33'0 0.0
2018-Feb-14 16:59N 38°02' E 023°33'0 0.0
2018-Feb-14 16:29N 38°02' E 023°33'0 0.0
2018-Feb-14 15:59N 38°02' E 023°33'0 0.0
2018-Feb-14 15:29N 38°02' E 023°33'0 0.0
2018-Feb-14 14:59N 38°02' E 023°33'0 0.0
2018-Feb-14 14:29N 38°02' E 023°33'0 0.0
2018-Feb-14 13:56N 38°02' E 023°33'0 0.0
2018-Feb-14 13:29N 38°02' E 023°33'0 0.0
2018-Feb-14 12:59N 38°02' E 023°33'0 0.0
2018-Feb-14 12:29N 38°02' E 023°33'0 0.0
2018-Feb-14 11:59N 38°02' E 023°33'0 0.0
2018-Feb-14 11:29N 38°02' E 023°33'0 0.0
2018-Feb-14 10:59N 38°02' E 023°33'0 0.0
2018-Feb-14 10:29N 38°02' E 023°33'0 0.0
2018-Feb-14 09:59N 38°02' E 023°33'0 0.0
2018-Feb-14 09:29N 38°02' E 023°33'0 0.0
2018-Feb-14 08:59N 38°02' E 023°33'0 0.0
2018-Feb-14 08:29N 38°02' E 023°33'0 0.0
2018-Feb-14 07:59N 38°02' E 023°33'0 0.0
2018-Feb-14 07:29N 38°02' E 023°33'0 0.0
2018-Feb-14 06:59N 38°02' E 023°33'0 0.0
2018-Feb-14 06:29N 38°02' E 023°33'0 0.0
2018-Feb-14 05:59N 38°02' E 023°33'0 0.0
2018-Feb-14 05:29N 38°02' E 023°33'0 0.0
2018-Feb-14 04:59N 38°02' E 023°33'0 0.0
2018-Feb-14 04:29N 38°02' E 023°33'0 0.0
2018-Feb-14 03:59N 38°02' E 023°33'0 0.0
2018-Feb-14 03:29N 38°02' E 023°33'0 0.0
2018-Feb-14 02:59N 38°02' E 023°33'0 0.0
2018-Feb-14 02:29N 38°02' E 023°33'0 0.0
2018-Feb-14 01:59N 38°02' E 023°33'0 0.0
2018-Feb-14 01:29N 38°02' E 023°33'0 0.0
2018-Feb-14 00:59N 38°02' E 023°33'0 0.0
2018-Feb-14 00:29N 38°02' E 023°33'0 0.0
2018-Feb-13 23:59N 38°02' E 023°33'0 0.0
2018-Feb-13 23:29N 38°02' E 023°33'0 0.0
2018-Feb-13 22:59N 38°02' E 023°33'0 0.0
2018-Feb-13 22:29N 38°02' E 023°33'0 0.0
2018-Feb-13 21:56N 38°02' E 023°33'0 0.0
2018-Feb-13 21:29N 38°02' E 023°33'0 0.0
2018-Feb-13 20:59N 38°02' E 023°33'0 0.0
2018-Feb-13 20:29N 38°02' E 023°33'0 0.0
2018-Feb-13 19:59N 38°02' E 023°33'0 0.0
2018-Feb-13 19:29N 38°02' E 023°33'0 0.0
2018-Feb-13 18:59N 38°02' E 023°33'0 0.0
2018-Feb-13 18:29N 38°02' E 023°33'0 0.0
2018-Feb-13 17:59N 38°02' E 023°33'0 0.0
2018-Feb-13 17:29N 38°02' E 023°33'0 0.0
2018-Feb-13 16:59N 38°02' E 023°33'0 0.0
2018-Feb-13 16:29N 38°02' E 023°33'0 0.0
2018-Feb-13 15:59N 38°02' E 023°33'0 0.0
2018-Feb-13 15:29N 38°02' E 023°33'0 0.0
2018-Feb-13 14:59N 38°02' E 023°33'0 0.0
2018-Feb-13 14:29N 38°02' E 023°33'0 0.0
2018-Feb-13 13:59N 38°02' E 023°33'0 0.0
2018-Feb-13 13:29N 38°02' E 023°33'0 0.0
2018-Feb-13 12:59N 38°02' E 023°33'0 0.1
2018-Feb-13 12:29N 38°02' E 023°33'1 3.1
2018-Feb-13 12:01N 38°01' E 023°31'0 0.9
2018-Feb-13 11:30N 38°01' E 023°30'1 1.3
2018-Feb-13 10:58N 38°02' E 023°30'0 0.0
2018-Feb-13 10:28N 38°02' E 023°30'0 0.0
2018-Feb-13 09:58N 38°02' E 023°30'0 0.0
2018-Feb-13 09:28N 38°02' E 023°30'0 0.0
2018-Feb-13 08:58N 38°02' E 023°30'0 0.0
2018-Feb-13 08:28N 38°02' E 023°30'0 0.0
2018-Feb-13 07:58N 38°02' E 023°30'0 0.0
2018-Feb-13 07:28N 38°02' E 023°30'0 0.0
2018-Feb-13 06:58N 38°02' E 023°30'0 0.0
2018-Feb-13 06:28N 38°02' E 023°30'0 0.0
2018-Feb-13 05:58N 38°02' E 023°30'0 0.0
2018-Feb-13 05:28N 38°02' E 023°30'0 0.0
2018-Feb-13 04:58N 38°02' E 023°30'0 0.0
2018-Feb-13 04:28N 38°02' E 023°30'0 0.0
2018-Feb-13 03:58N 38°02' E 023°30'0 0.0
2018-Feb-13 03:28N 38°02' E 023°30'0 0.0
2018-Feb-13 02:58N 38°02' E 023°30'0 0.0
2018-Feb-13 02:28N 38°02' E 023°30'0 0.0
2018-Feb-13 01:58N 38°02' E 023°30'0 0.0
2018-Feb-13 01:28N 38°02' E 023°30'0 0.0
2018-Feb-13 00:58N 38°02' E 023°30'0 0.0
2018-Feb-13 00:28N 38°02' E 023°30'0 0.0
2018-Feb-12 23:58N 38°02' E 023°30'0 0.0
2018-Feb-12 23:28N 38°02' E 023°30'0 0.0
2018-Feb-12 22:58N 38°02' E 023°30'0 0.0
2018-Feb-12 22:28N 38°02' E 023°30'0 0.0
2018-Feb-12 21:58N 38°02' E 023°30'0 0.0
2018-Feb-12 21:28N 38°02' E 023°30'0 0.0
2018-Feb-12 20:58N 38°02' E 023°30'0 0.0
2018-Feb-12 20:28N 38°02' E 023°30'0 0.0
2018-Feb-12 19:58N 38°02' E 023°30'0 0.0
2018-Feb-12 19:28N 38°02' E 023°30'0 0.0
2018-Feb-12 18:58N 38°02' E 023°30'0 0.0
2018-Feb-12 18:28N 38°02' E 023°30'0 0.0
2018-Feb-12 17:58N 38°02' E 023°30'0 0.0
2018-Feb-12 17:28N 38°02' E 023°30'0 0.0
2018-Feb-12 16:58N 38°02' E 023°30'0 0.0
2018-Feb-12 16:28N 38°02' E 023°30'0 0.0
2018-Feb-12 15:58N 38°02' E 023°30'0 0.0
2018-Feb-12 15:16N 38°02' E 023°30'0 0.0
2018-Feb-12 14:58N 38°02' E 023°30'0 0.0
2018-Feb-12 14:28N 38°02' E 023°30'0 0.0
2018-Feb-12 13:58N 38°02' E 023°30'0 0.0
2018-Feb-12 13:28N 38°02' E 023°30'0 0.0
2018-Feb-12 12:58N 38°02' E 023°30'0 0.0
2018-Feb-12 12:28N 38°02' E 023°30'0 0.0
2018-Feb-12 11:58N 38°02' E 023°30'0 0.0
2018-Feb-12 11:28N 38°02' E 023°30'0 0.0
2018-Feb-12 10:58N 38°02' E 023°30'0 0.0
2018-Feb-12 10:28N 38°02' E 023°30'0 0.0
2018-Feb-12 09:58N 38°02' E 023°30'0 0.0
2018-Feb-12 09:28N 38°02' E 023°30'0 0.0
2018-Feb-12 08:58N 38°02' E 023°30'0 0.0
2018-Feb-12 08:28N 38°02' E 023°30'0 0.0
2018-Feb-12 07:58N 38°02' E 023°30'0 0.0
2018-Feb-12 07:28N 38°02' E 023°30'0 0.0
2018-Feb-12 06:58N 38°02' E 023°30'0 0.0
2018-Feb-12 06:28N 38°02' E 023°30'0 0.0
2018-Feb-12 05:58N 38°02' E 023°30'0 0.0
2018-Feb-12 05:28N 38°02' E 023°30'0 0.0
2018-Feb-12 04:58N 38°02' E 023°30'0 0.0
2018-Feb-12 04:28N 38°02' E 023°30'0 0.0
2018-Feb-12 03:58N 38°02' E 023°30'0 0.0
2018-Feb-12 03:28N 38°02' E 023°30'0 0.0
2018-Feb-12 02:58N 38°02' E 023°30'0 0.0
2018-Feb-12 02:28N 38°02' E 023°30'0 0.0
2018-Feb-12 01:58N 38°02' E 023°30'0 0.0
2018-Feb-12 01:28N 38°02' E 023°30'0 0.0
2018-Feb-12 00:58N 38°02' E 023°30'0 0.0
2018-Feb-12 00:28N 38°02' E 023°30'0 0.0
2018-Feb-11 23:58N 38°02' E 023°30'0 0.0
2018-Feb-11 23:28N 38°02' E 023°30'0 0.0
2018-Feb-11 22:58N 38°02' E 023°30'0 0.0
2018-Feb-11 22:28N 38°02' E 023°30'0 0.0
2018-Feb-11 21:58N 38°02' E 023°30'0 0.0
2018-Feb-11 21:28N 38°02' E 023°30'0 0.0
2018-Feb-11 20:58N 38°02' E 023°30'0 0.0
2018-Feb-11 20:28N 38°02' E 023°30'0 0.0
2018-Feb-11 19:58N 38°02' E 023°30'0 0.0
2018-Feb-11 19:28N 38°02' E 023°30'0 0.0
2018-Feb-11 18:58N 38°02' E 023°30'0 0.0
2018-Feb-11 18:28N 38°02' E 023°30'0 0.0
2018-Feb-11 17:58N 38°02' E 023°30'0 0.0
2018-Feb-11 17:28N 38°02' E 023°30'0 0.0
2018-Feb-11 16:58N 38°02' E 023°30'0 0.0
2018-Feb-11 16:28N 38°02' E 023°30'0 0.0
2018-Feb-11 15:58N 38°02' E 023°30'0 0.0
2018-Feb-11 15:28N 38°02' E 023°30'0 0.0
2018-Feb-11 14:58N 38°02' E 023°30'0 0.0
2018-Feb-11 14:28N 38°02' E 023°30'0 0.0
2018-Feb-11 13:58N 38°02' E 023°30'0 0.0
2018-Feb-11 13:28N 38°02' E 023°30'0 0.0
2018-Feb-11 12:58N 38°02' E 023°30'0 0.0
2018-Feb-11 12:28N 38°02' E 023°30'0 0.0
2018-Feb-11 11:58N 38°02' E 023°30'0 0.0
2018-Feb-11 11:28N 38°02' E 023°30'0 0.0
2018-Feb-11 10:58N 38°02' E 023°30'0 0.0
2018-Feb-11 10:28N 38°02' E 023°30'0 0.0
2018-Feb-11 09:58N 38°02' E 023°30'0 0.0
2018-Feb-11 09:28N 38°02' E 023°30'0 0.0
2018-Feb-11 08:58N 38°02' E 023°30'0 0.0
2018-Feb-11 08:28N 38°02' E 023°30'0 0.0
2018-Feb-11 07:58N 38°02' E 023°30'0 0.0
2018-Feb-11 07:28N 38°02' E 023°30'0 0.0
2018-Feb-11 06:58N 38°02' E 023°30'0 0.0
2018-Feb-11 06:28N 38°02' E 023°30'0 0.0
2018-Feb-11 05:58N 38°02' E 023°30'0 0.0
2018-Feb-11 05:28N 38°02' E 023°30'0 0.0
2018-Feb-11 04:58N 38°02' E 023°30'0 0.0
2018-Feb-11 04:28N 38°02' E 023°30'0 0.0
2018-Feb-11 03:58N 38°02' E 023°30'0 0.0
2018-Feb-11 03:28N 38°02' E 023°30'0 0.0
2018-Feb-11 02:58N 38°02' E 023°30'0 0.0
2018-Feb-11 02:28N 38°02' E 023°30'0 0.0
2018-Feb-11 01:58N 38°02' E 023°30'0 0.0
2018-Feb-11 01:28N 38°02' E 023°30'0 0.0
2018-Feb-11 00:58N 38°02' E 023°30'0 0.0
2018-Feb-11 00:28N 38°02' E 023°30'0 0.0
2018-Feb-10 23:58N 38°02' E 023°30'0 0.0
2018-Feb-10 23:28N 38°02' E 023°30'0 0.0
2018-Feb-10 22:58N 38°02' E 023°30'0 0.0
2018-Feb-10 22:28N 38°02' E 023°30'0 0.0
2018-Feb-10 21:58N 38°02' E 023°30'0 0.0
2018-Feb-10 21:28N 38°02' E 023°30'0 0.0
2018-Feb-10 20:58N 38°02' E 023°30'0 0.0
2018-Feb-10 20:28N 38°02' E 023°30'0 0.0
2018-Feb-10 19:58N 38°02' E 023°30'0 0.0
2018-Feb-10 19:28N 38°02' E 023°30'0 0.0
2018-Feb-10 18:58N 38°02' E 023°30'0 0.0
2018-Feb-10 18:28N 38°02' E 023°30'0 0.0
2018-Feb-10 17:58N 38°02' E 023°30'0 0.0
2018-Feb-10 17:28N 38°02' E 023°30'0 0.0
2018-Feb-10 16:58N 38°02' E 023°30'0 0.0
2018-Feb-10 16:28N 38°02' E 023°30'0 0.0
2018-Feb-10 15:58N 38°02' E 023°30'0 0.0
2018-Feb-10 15:28N 38°02' E 023°30'0 0.0
2018-Feb-10 14:58N 38°02' E 023°30'0 0.0
2018-Feb-10 14:28N 38°02' E 023°30'0 0.0
2018-Feb-10 13:58N 38°02' E 023°30'0 0.0
2018-Feb-10 13:28N 38°02' E 023°30'0 0.0
2018-Feb-10 12:58N 38°02' E 023°30'0 0.0
2018-Feb-10 12:28N 38°02' E 023°30'0 0.0
2018-Feb-10 11:58N 38°02' E 023°30'0 0.0
2018-Feb-10 11:28N 38°02' E 023°30'0 0.0
2018-Feb-10 10:58N 38°02' E 023°30'0 0.0
2018-Feb-10 10:28N 38°02' E 023°30'0 0.0
2018-Feb-10 09:58N 38°02' E 023°30'0 0.0
2018-Feb-10 09:28N 38°02' E 023°30'0 0.0
2018-Feb-10 08:58N 38°02' E 023°30'0 0.0
2018-Feb-10 08:28N 38°02' E 023°30'0 0.0
2018-Feb-10 07:58N 38°02' E 023°30'  
Track history (hours):
 
Tides and Currents Weather Stations Pressure Air Temp Water Temp Dewpoint Dewpoint Depression Visibility Wind Speed Wind Dir Waves Ship Positions

Kapetan Christos

Last reported at 2018-Feb-20 07:31 UTC. Time now 2018-Feb-20 07:47 UTC.
Position N 38°02' E 023°33'.

Length 98 m; draft 3.8 m.

Type: Cargo ship. MMSI: 241495000.

Date/timePositionNaut miles runAvg speedWind from/ knotsBaromVisibWave heightAir tempDewpointWater temp
2018-Feb-20 07:31N 38°02' E 023°33'0 0.0
2018-Feb-20 07:00N 38°02' E 023°33'0 0.0
2018-Feb-20 06:30N 38°02' E 023°33'0 0.0
2018-Feb-20 06:00N 38°02' E 023°33'0 0.0
2018-Feb-20 05:31N 38°02' E 023°33'0 0.0
2018-Feb-20 05:01N 38°02' E 023°33'0 0.0
2018-Feb-20 04:30N 38°02' E 023°33'0 0.0
2018-Feb-20 04:00N 38°02' E 023°33'0 0.0
2018-Feb-20 03:30N 38°02' E 023°33'0 0.0
2018-Feb-20 03:00N 38°02' E 023°33'0 0.0
2018-Feb-20 02:30N 38°02' E 023°33'0 0.0
2018-Feb-20 02:00N 38°02' E 023°33'0 0.0
2018-Feb-20 01:30N 38°02' E 023°33'0 0.0
2018-Feb-20 01:00N 38°02' E 023°33'0 0.0
2018-Feb-20 00:30N 38°02' E 023°33'0 0.0
2018-Feb-20 00:01N 38°02' E 023°33'0 0.0
2018-Feb-19 23:31N 38°02' E 023°33'0 0.0
2018-Feb-19 23:00N 38°02' E 023°33'0 0.0
2018-Feb-19 22:30N 38°02' E 023°33'0 0.0
2018-Feb-19 22:00N 38°02' E 023°33'0 0.0
2018-Feb-19 21:30N 38°02' E 023°33'0 0.0
2018-Feb-19 21:01N 38°02' E 023°33'0 0.0
2018-Feb-19 20:30N 38°02' E 023°33'0 0.0
2018-Feb-19 20:00N 38°02' E 023°33'0 0.0
2018-Feb-19 19:30N 38°02' E 023°33'0 0.0
2018-Feb-19 19:00N 38°02' E 023°33'0 0.0
2018-Feb-19 18:30N 38°02' E 023°33'0 0.0
2018-Feb-19 18:00N 38°02' E 023°33'0 0.0
2018-Feb-19 17:31N 38°02' E 023°33'0 0.0
2018-Feb-19 17:00N 38°02' E 023°33'0 0.0
2018-Feb-19 16:30N 38°02' E 023°33'0 0.0
2018-Feb-19 16:00N 38°02' E 023°33'0 0.0
2018-Feb-19 15:31N 38°02' E 023°33'0 0.0
2018-Feb-19 15:00N 38°02' E 023°33'0 0.0
2018-Feb-19 14:30N 38°02' E 023°33'0 0.0
2018-Feb-19 14:01N 38°02' E 023°33'0 0.0
2018-Feb-19 13:30N 38°02' E 023°33'0 0.0
2018-Feb-19 13:01N 38°02' E 023°33'0 0.0
2018-Feb-19 12:30N 38°02' E 023°33'0 0.0
2018-Feb-19 12:00N 38°02' E 023°33'0 0.0
2018-Feb-19 11:30N 38°02' E 023°33'0 0.0
2018-Feb-19 11:00N 38°02' E 023°33'0 0.0
2018-Feb-19 10:30N 38°02' E 023°33'0 0.0
2018-Feb-19 10:01N 38°02' E 023°33'0 0.0
2018-Feb-19 09:30N 38°02' E 023°33'0 0.0
2018-Feb-19 09:00N 38°02' E 023°33'0 0.0
2018-Feb-19 08:31N 38°02' E 023°33'0 0.0
2018-Feb-19 08:01N 38°02' E 023°33'0 0.0
2018-Feb-19 07:30N 38°02' E 023°33'0 0.0
2018-Feb-19 07:00N 38°02' E 023°33'0 0.0
2018-Feb-19 06:31N 38°02' E 023°33'0 0.0
2018-Feb-19 06:00N 38°02' E 023°33'0 0.0
2018-Feb-19 05:31N 38°02' E 023°33'0 0.0
2018-Feb-19 05:00N 38°02' E 023°33'0 0.0
2018-Feb-19 04:30N 38°02' E 023°33'0 0.0
2018-Feb-19 04:01N 38°02' E 023°33'3 5.5
2018-Feb-19 03:31N 38°01' E 023°29'5 9.9
2018-Feb-19 03:00N 37°57' E 023°25'510.6
2018-Feb-19 02:31N 37°52' E 023°25'713.5
2018-Feb-19 02:01N 37°49' E 023°33'713.4
2018-Feb-19 01:30N 37°45' E 023°40'713.3
2018-Feb-19 01:00N 37°40' E 023°46'4713.5
2018-Feb-18 21:31N 37°31' E 024°44'013.6
2018-Feb-18 21:30N 37°31' E 024°44'813.4
2018-Feb-18 20:57N 37°31' E 024°54'511.8
2018-Feb-18 20:30N 37°27' E 024°57'1 1.8
2018-Feb-18 20:00N 37°26' E 024°57'510.7
2018-Feb-18 19:30N 37°27' E 025°03'13 8.0
2018-Feb-18 17:53N 37°28' E 025°19'0 0.0
2018-Feb-18 17:30N 37°28' E 025°19'2 2.2
2018-Feb-18 16:31N 37°26' E 025°17'013.3
2018-Feb-18 16:30N 37°26' E 025°17'713.0
2018-Feb-18 16:00N 37°20' E 025°15'713.7
2018-Feb-18 15:30N 37°14' E 025°12'713.8
2018-Feb-18 14:59N 37°07' E 025°08'2 2.5
2018-Feb-18 14:14N 37°05' E 025°09'2 9.7
2018-Feb-18 14:00N 37°06' E 025°06'5 0.4
2018-Feb-18 02:59N 37°03' E 025°01'612.2
2018-Feb-18 02:30N 37°05' E 025°08'1 1.2
2018-Feb-18 01:51N 37°05' E 025°09'610.0
2018-Feb-18 01:15N 37°11' E 025°10'314.0
2018-Feb-18 01:00N 37°14' E 025°12'714.0
2018-Feb-18 00:30N 37°21' E 025°16'713.8
2018-Feb-18 00:00N 37°27' E 025°18'1 2.9
2018-Feb-17 23:30N 37°28' E 025°19'0 0.0
2018-Feb-17 23:00N 37°28' E 025°19'3 5.8
2018-Feb-17 22:30N 37°28' E 025°16'612.4
2018-Feb-17 22:00N 37°27' E 025°08'612.8
2018-Feb-17 21:30N 37°26' E 025°00'3 5.1
2018-Feb-17 20:57N 37°26' E 024°56'1 3.3
2018-Feb-17 20:30N 37°28' E 024°57'611.6
2018-Feb-17 20:00N 37°31' E 024°52'5012.3
2018-Feb-17 15:57N 37°38' E 023°49'612.7
2018-Feb-17 15:30N 37°40' E 023°43'713.3
2018-Feb-17 15:00N 37°46' E 023°39'713.5
2018-Feb-17 14:31N 37°52' E 023°36'611.5
2018-Feb-17 14:00N 37°58' E 023°33'4 8.8
2018-Feb-17 13:30N 38°02' E 023°33'0 0.0
2018-Feb-17 12:59N 38°02' E 023°33'0 0.0
2018-Feb-17 12:29N 38°02' E 023°33'0 0.0
2018-Feb-17 11:59N 38°02' E 023°33'0 0.0
2018-Feb-17 11:29N 38°02' E 023°33'0 0.0
2018-Feb-17 10:59N 38°02' E 023°33'0 0.0
2018-Feb-17 10:29N 38°02' E 023°33'0 0.0
2018-Feb-17 09:59N 38°02' E 023°33'0 0.0
2018-Feb-17 09:29N 38°02' E 023°33'0 0.0
2018-Feb-17 08:59N 38°02' E 023°33'0 0.0
2018-Feb-17 08:29N 38°02' E 023°33'0 0.0
2018-Feb-17 07:59N 38°02' E 023°33'0 0.0
2018-Feb-17 07:29N 38°02' E 023°33'0 0.0
2018-Feb-17 06:59N 38°02' E 023°33'0 0.0
2018-Feb-17 06:29N 38°02' E 023°33'0 0.0
2018-Feb-17 05:59N 38°02' E 023°33'0 0.0
2018-Feb-17 05:26N 38°02' E 023°33'0 0.0
2018-Feb-17 04:59N 38°02' E 023°33'0 0.0
2018-Feb-17 04:29N 38°02' E 023°33'0 0.0
2018-Feb-17 03:59N 38°02' E 023°33'0 0.0
2018-Feb-17 03:29N 38°02' E 023°33'0 0.0
2018-Feb-17 02:59N 38°02' E 023°33'0 0.0
2018-Feb-17 02:29N 38°02' E 023°33'0 0.0
2018-Feb-17 01:59N 38°02' E 023°33'0 0.0
2018-Feb-17 01:29N 38°02' E 023°33'0 0.0
2018-Feb-17 00:59N 38°02' E 023°33'0 0.0
2018-Feb-17 00:26N 38°02' E 023°33'0 0.0
2018-Feb-16 23:59N 38°02' E 023°33'0 0.0
2018-Feb-16 23:29N 38°02' E 023°33'0 0.0
2018-Feb-16 22:59N 38°02' E 023°33'0 0.0
2018-Feb-16 22:29N 38°02' E 023°33'0 0.0
2018-Feb-16 21:59N 38°02' E 023°33'0 0.0
2018-Feb-16 21:29N 38°02' E 023°33'0 0.0
2018-Feb-16 20:59N 38°02' E 023°33'0 0.0
2018-Feb-16 20:29N 38°02' E 023°33'0 0.0
2018-Feb-16 19:59N 38°02' E 023°33'0 0.0
2018-Feb-16 19:29N 38°02' E 023°33'0 0.0
2018-Feb-16 18:59N 38°02' E 023°33'0 0.0
2018-Feb-16 18:29N 38°02' E 023°33'0 0.0
2018-Feb-16 17:59N 38°02' E 023°33'0 0.0
2018-Feb-16 17:29N 38°02' E 023°33'0 0.0
2018-Feb-16 16:59N 38°02' E 023°33'0 0.0
2018-Feb-16 16:24N 38°02' E 023°33'0 0.0
2018-Feb-16 15:59N 38°02' E 023°33'0 0.0
2018-Feb-16 15:29N 38°02' E 023°33'0 0.0
2018-Feb-16 14:59N 38°02' E 023°33'0 0.0
2018-Feb-16 14:29N 38°02' E 023°33'0 0.0
2018-Feb-16 13:57N 38°02' E 023°33'0 0.0
2018-Feb-16 13:29N 38°02' E 023°33'0 0.0
2018-Feb-16 12:53N 38°02' E 023°33'0 0.0
2018-Feb-16 12:29N 38°02' E 023°33'0 0.0
2018-Feb-16 11:59N 38°02' E 023°33'0 0.0
2018-Feb-16 11:29N 38°02' E 023°33'0 0.0
2018-Feb-16 10:59N 38°02' E 023°33'0 0.0
2018-Feb-16 10:29N 38°02' E 023°33'0 0.0
2018-Feb-16 09:59N 38°02' E 023°33'0 0.0
2018-Feb-16 09:29N 38°02' E 023°33'0 0.0
2018-Feb-16 08:59N 38°02' E 023°33'0 0.0
2018-Feb-16 08:29N 38°02' E 023°33'0 0.0
2018-Feb-16 07:59N 38°02' E 023°33'0 0.0
2018-Feb-16 07:29N 38°02' E 023°33'0 0.0
2018-Feb-16 06:59N 38°02' E 023°33'0 0.0
2018-Feb-16 06:29N 38°02' E 023°33'0 0.0
2018-Feb-16 05:59N 38°02' E 023°33'0 0.0
2018-Feb-16 05:29N 38°02' E 023°33'0 0.0
2018-Feb-16 04:59N 38°02' E 023°33'0 0.0
2018-Feb-16 04:29N 38°02' E 023°33'0 0.0
2018-Feb-16 03:59N 38°02' E 023°33'0 0.0
2018-Feb-16 03:29N 38°02' E 023°33'0 0.0
2018-Feb-16 02:59N 38°02' E 023°33'0 0.0
2018-Feb-16 02:29N 38°02' E 023°33'0 0.0
2018-Feb-16 01:59N 38°02' E 023°33'0 0.0
2018-Feb-16 01:29N 38°02' E 023°33'0 0.0
2018-Feb-16 00:59N 38°02' E 023°33'0 0.0
2018-Feb-16 00:29N 38°02' E 023°33'0 0.0
2018-Feb-15 23:59N 38°02' E 023°33'0 0.0
2018-Feb-15 23:29N 38°02' E 023°33'0 0.0
2018-Feb-15 22:59N 38°02' E 023°33'0 0.0
2018-Feb-15 22:29N 38°02' E 023°33'0 0.0
2018-Feb-15 21:59N 38°02' E 023°33'0 0.0
2018-Feb-15 21:29N 38°02' E 023°33'0 0.0
2018-Feb-15 20:59N 38°02' E 023°33'0 0.0
2018-Feb-15 20:29N 38°02' E 023°33'0 0.0
2018-Feb-15 19:59N 38°02' E 023°33'0 0.0
2018-Feb-15 19:29N 38°02' E 023°33'0 0.0
2018-Feb-15 18:59N 38°02' E 023°33'0 0.0
2018-Feb-15 18:29N 38°02' E 023°33'0 0.0
2018-Feb-15 17:59N 38°02' E 023°33'0 0.0
2018-Feb-15 17:29N 38°02' E 023°33'0 0.0
2018-Feb-15 16:59N 38°02' E 023°33'0 0.0
2018-Feb-15 16:29N 38°02' E 023°33'0 0.0
2018-Feb-15 15:59N 38°02' E 023°33'0 0.0
2018-Feb-15 15:29N 38°02' E 023°33'0 0.0
2018-Feb-15 14:53N 38°02' E 023°33'0 0.0
2018-Feb-15 14:29N 38°02' E 023°33'0 0.0
2018-Feb-15 13:59N 38°02' E 023°33'0 0.0
2018-Feb-15 13:29N 38°02' E 023°33'0 0.0
2018-Feb-15 12:59N 38°02' E 023°33'0 0.0
2018-Feb-15 12:29N 38°02' E 023°33'0 0.0
2018-Feb-15 11:59N 38°02' E 023°33'0 0.0
2018-Feb-15 11:29N 38°02' E 023°33'0 0.0
2018-Feb-15 10:59N 38°02' E 023°33'0 0.0
2018-Feb-15 10:29N 38°02' E 023°33'0 0.0
2018-Feb-15 09:59N 38°02' E 023°33'0 0.0
2018-Feb-15 09:29N 38°02' E 023°33'0 0.0
2018-Feb-15 08:59N 38°02' E 023°33'0 0.0
2018-Feb-15 08:26N 38°02' E 023°33'0 0.0
2018-Feb-15 07:59N 38°02' E 023°33'0 0.0
2018-Feb-15 07:29N 38°02' E 023°33'0 0.0
2018-Feb-15 06:59N 38°02' E 023°33'0 0.0
2018-Feb-15 06:23N 38°02' E 023°33'0 0.0
2018-Feb-15 05:59N 38°02' E 023°33'0 0.0
2018-Feb-15 05:29N 38°02' E 023°33'0 0.0
2018-Feb-15 04:59N 38°02' E 023°33'0 0.0
2018-Feb-15 04:29N 38°02' E 023°33'0 0.0
2018-Feb-15 03:59N 38°02' E 023°33'0 0.0
2018-Feb-15 03:29N 38°02' E 023°33'0 0.0
2018-Feb-15 02:59N 38°02' E 023°33'0 0.0
2018-Feb-15 02:29N 38°02' E 023°33'0 0.0
2018-Feb-15 01:59N 38°02' E 023°33'0 0.0
2018-Feb-15 01:29N 38°02' E 023°33'0 0.0
2018-Feb-15 00:59N 38°02' E 023°33'0 0.0
2018-Feb-15 00:29N 38°02' E 023°33'0 0.0
2018-Feb-14 23:59N 38°02' E 023°33'0 0.0
2018-Feb-14 23:29N 38°02' E 023°33'0 0.0
2018-Feb-14 22:59N 38°02' E 023°33'0 0.0
2018-Feb-14 22:29N 38°02' E 023°33'0 0.0
2018-Feb-14 21:59N 38°02' E 023°33'0 0.0
2018-Feb-14 21:29N 38°02' E 023°33'0 0.0
2018-Feb-14 20:59N 38°02' E 023°33'0 0.0
2018-Feb-14 20:29N 38°02' E 023°33'0 0.0
2018-Feb-14 19:59N 38°02' E 023°33'0 0.0
2018-Feb-14 19:29N 38°02' E 023°33'0 0.0
2018-Feb-14 18:59N 38°02' E 023°33'0 0.0
2018-Feb-14 18:29N 38°02' E 023°33'0 0.0
2018-Feb-14 17:59N 38°02' E 023°33'0 0.0
2018-Feb-14 17:29N 38°02' E 023°33'0 0.0
2018-Feb-14 16:59N 38°02' E 023°33'0 0.0
2018-Feb-14 16:29N 38°02' E 023°33'0 0.0
2018-Feb-14 15:59N 38°02' E 023°33'0 0.0
2018-Feb-14 15:29N 38°02' E 023°33'0 0.0
2018-Feb-14 14:59N 38°02' E 023°33'0 0.0
2018-Feb-14 14:29N 38°02' E 023°33'0 0.0
2018-Feb-14 13:56N 38°02' E 023°33'0 0.0
2018-Feb-14 13:29N 38°02' E 023°33'0 0.0
2018-Feb-14 12:59N 38°02' E 023°33'0 0.0
2018-Feb-14 12:29N 38°02' E 023°33'0 0.0
2018-Feb-14 11:59N 38°02' E 023°33'0 0.0
2018-Feb-14 11:29N 38°02' E 023°33'0 0.0
2018-Feb-14 10:59N 38°02' E 023°33'0 0.0
2018-Feb-14 10:29N 38°02' E 023°33'0 0.0
2018-Feb-14 09:59N 38°02' E 023°33'0 0.0
2018-Feb-14 09:29N 38°02' E 023°33'0 0.0
2018-Feb-14 08:59N 38°02' E 023°33'0 0.0
2018-Feb-14 08:29N 38°02' E 023°33'0 0.0
2018-Feb-14 07:59N 38°02' E 023°33'0 0.0
2018-Feb-14 07:29N 38°02' E 023°33'0 0.0
2018-Feb-14 06:59N 38°02' E 023°33'0 0.0
2018-Feb-14 06:29N 38°02' E 023°33'0 0.0
2018-Feb-14 05:59N 38°02' E 023°33'0 0.0
2018-Feb-14 05:29N 38°02' E 023°33'0 0.0
2018-Feb-14 04:59N 38°02' E 023°33'0 0.0
2018-Feb-14 04:29N 38°02' E 023°33'0 0.0
2018-Feb-14 03:59N 38°02' E 023°33'0 0.0
2018-Feb-14 03:29N 38°02' E 023°33'0 0.0
2018-Feb-14 02:59N 38°02' E 023°33'0 0.0
2018-Feb-14 02:29N 38°02' E 023°33'0 0.0
2018-Feb-14 01:59N 38°02' E 023°33'0 0.0
2018-Feb-14 01:29N 38°02' E 023°33'0 0.0
2018-Feb-14 00:59N 38°02' E 023°33'0 0.0
2018-Feb-14 00:29N 38°02' E 023°33'0 0.0
2018-Feb-13 23:59N 38°02' E 023°33'0 0.0
2018-Feb-13 23:29N 38°02' E 023°33'0 0.0
2018-Feb-13 22:59N 38°02' E 023°33'0 0.0
2018-Feb-13 22:29N 38°02' E 023°33'0 0.0
2018-Feb-13 21:56N 38°02' E 023°33'0 0.0
2018-Feb-13 21:29N 38°02' E 023°33'0 0.0
2018-Feb-13 20:59N 38°02' E 023°33'0 0.0
2018-Feb-13 20:29N 38°02' E 023°33'0 0.0
2018-Feb-13 19:59N 38°02' E 023°33'0 0.0
2018-Feb-13 19:29N 38°02' E 023°33'0 0.0
2018-Feb-13 18:59N 38°02' E 023°33'0 0.0
2018-Feb-13 18:29N 38°02' E 023°33'0 0.0
2018-Feb-13 17:59N 38°02' E 023°33'0 0.0
2018-Feb-13 17:29N 38°02' E 023°33'0 0.0
2018-Feb-13 16:59N 38°02' E 023°33'0 0.0
2018-Feb-13 16:29N 38°02' E 023°33'0 0.0
2018-Feb-13 15:59N 38°02' E 023°33'0 0.0
2018-Feb-13 15:29N 38°02' E 023°33'0 0.0
2018-Feb-13 14:59N 38°02' E 023°33'0 0.0
2018-Feb-13 14:29N 38°02' E 023°33'0 0.0
2018-Feb-13 13:59N 38°02' E 023°33'0 0.0
2018-Feb-13 13:29N 38°02' E 023°33'0 0.0
2018-Feb-13 12:59N 38°02' E 023°33'0 0.1
2018-Feb-13 12:29N 38°02' E 023°33'1 3.1
2018-Feb-13 12:01N 38°01' E 023°31'0 0.9
2018-Feb-13 11:30N 38°01' E 023°30'1 1.3
2018-Feb-13 10:58N 38°02' E 023°30'0 0.0
2018-Feb-13 10:28N 38°02' E 023°30'0 0.0
2018-Feb-13 09:58N 38°02' E 023°30'0 0.0
2018-Feb-13 09:28N 38°02' E 023°30'0 0.0
2018-Feb-13 08:58N 38°02' E 023°30'0 0.0
2018-Feb-13 08:28N 38°02' E 023°30'0 0.0
2018-Feb-13 07:58N 38°02' E 023°30'0 0.0
2018-Feb-13 07:28N 38°02' E 023°30'0 0.0
2018-Feb-13 06:58N 38°02' E 023°30'0 0.0
2018-Feb-13 06:28N 38°02' E 023°30'0 0.0
2018-Feb-13 05:58N 38°02' E 023°30'0 0.0
2018-Feb-13 05:28N 38°02' E 023°30'0 0.0
2018-Feb-13 04:58N 38°02' E 023°30'0 0.0
2018-Feb-13 04:28N 38°02' E 023°30'0 0.0
2018-Feb-13 03:58N 38°02' E 023°30'0 0.0
2018-Feb-13 03:28N 38°02' E 023°30'0 0.0
2018-Feb-13 02:58N 38°02' E 023°30'0 0.0
2018-Feb-13 02:28N 38°02' E 023°30'0 0.0
2018-Feb-13 01:58N 38°02' E 023°30'0 0.0
2018-Feb-13 01:28N 38°02' E 023°30'0 0.0
2018-Feb-13 00:58N 38°02' E 023°30'0 0.0
2018-Feb-13 00:28N 38°02' E 023°30'0 0.0
2018-Feb-12 23:58N 38°02' E 023°30'0 0.0
2018-Feb-12 23:28N 38°02' E 023°30'0 0.0
2018-Feb-12 22:58N 38°02' E 023°30'0 0.0
2018-Feb-12 22:28N 38°02' E 023°30'0 0.0
2018-Feb-12 21:58N 38°02' E 023°30'0 0.0
2018-Feb-12 21:28N 38°02' E 023°30'0 0.0
2018-Feb-12 20:58N 38°02' E 023°30'0 0.0
2018-Feb-12 20:28N 38°02' E 023°30'0 0.0
2018-Feb-12 19:58N 38°02' E 023°30'0 0.0
2018-Feb-12 19:28N 38°02' E 023°30'0 0.0
2018-Feb-12 18:58N 38°02' E 023°30'0 0.0
2018-Feb-12 18:28N 38°02' E 023°30'0 0.0
2018-Feb-12 17:58N 38°02' E 023°30'0 0.0
2018-Feb-12 17:28N 38°02' E 023°30'0 0.0
2018-Feb-12 16:58N 38°02' E 023°30'0 0.0
2018-Feb-12 16:28N 38°02' E 023°30'0 0.0
2018-Feb-12 15:58N 38°02' E 023°30'0 0.0
2018-Feb-12 15:16N 38°02' E 023°30'0 0.0
2018-Feb-12 14:58N 38°02' E 023°30'0 0.0
2018-Feb-12 14:28N 38°02' E 023°30'0 0.0
2018-Feb-12 13:58N 38°02' E 023°30'0 0.0
2018-Feb-12 13:28N 38°02' E 023°30'0 0.0
2018-Feb-12 12:58N 38°02' E 023°30'0 0.0
2018-Feb-12 12:28N 38°02' E 023°30'0 0.0
2018-Feb-12 11:58N 38°02' E 023°30'0 0.0
2018-Feb-12 11:28N 38°02' E 023°30'0 0.0
2018-Feb-12 10:58N 38°02' E 023°30'0 0.0
2018-Feb-12 10:28N 38°02' E 023°30'0 0.0
2018-Feb-12 09:58N 38°02' E 023°30'0 0.0
2018-Feb-12 09:28N 38°02' E 023°30'0 0.0
2018-Feb-12 08:58N 38°02' E 023°30'0 0.0
2018-Feb-12 08:28N 38°02' E 023°30'0 0.0
2018-Feb-12 07:58N 38°02' E 023°30'0 0.0
2018-Feb-12 07:28N 38°02' E 023°30'0 0.0
2018-Feb-12 06:58N 38°02' E 023°30'0 0.0
2018-Feb-12 06:28N 38°02' E 023°30'0 0.0
2018-Feb-12 05:58N 38°02' E 023°30'0 0.0
2018-Feb-12 05:28N 38°02' E 023°30'0 0.0
2018-Feb-12 04:58N 38°02' E 023°30'0 0.0
2018-Feb-12 04:28N 38°02' E 023°30'0 0.0
2018-Feb-12 03:58N 38°02' E 023°30'0 0.0
2018-Feb-12 03:28N 38°02' E 023°30'0 0.0
2018-Feb-12 02:58N 38°02' E 023°30'0 0.0
2018-Feb-12 02:28N 38°02' E 023°30'0 0.0
2018-Feb-12 01:58N 38°02' E 023°30'0 0.0
2018-Feb-12 01:28N 38°02' E 023°30'0 0.0
2018-Feb-12 00:58N 38°02' E 023°30'0 0.0
2018-Feb-12 00:28N 38°02' E 023°30'0 0.0
2018-Feb-11 23:58N 38°02' E 023°30'0 0.0
2018-Feb-11 23:28N 38°02' E 023°30'0 0.0
2018-Feb-11 22:58N 38°02' E 023°30'0 0.0
2018-Feb-11 22:28N 38°02' E 023°30'0 0.0
2018-Feb-11 21:58N 38°02' E 023°30'0 0.0
2018-Feb-11 21:28N 38°02' E 023°30'0 0.0
2018-Feb-11 20:58N 38°02' E 023°30'0 0.0
2018-Feb-11 20:28N 38°02' E 023°30'0 0.0
2018-Feb-11 19:58N 38°02' E 023°30'0 0.0
2018-Feb-11 19:28N 38°02' E 023°30'0 0.0
2018-Feb-11 18:58N 38°02' E 023°30'0 0.0
2018-Feb-11 18:28N 38°02' E 023°30'0 0.0
2018-Feb-11 17:58N 38°02' E 023°30'0 0.0
2018-Feb-11 17:28N 38°02' E 023°30'0 0.0
2018-Feb-11 16:58N 38°02' E 023°30'0 0.0
2018-Feb-11 16:28N 38°02' E 023°30'0 0.0
2018-Feb-11 15:58N 38°02' E 023°30'0 0.0
2018-Feb-11 15:28N 38°02' E 023°30'0 0.0
2018-Feb-11 14:58N 38°02' E 023°30'0 0.0
2018-Feb-11 14:28N 38°02' E 023°30'0 0.0
2018-Feb-11 13:58N 38°02' E 023°30'0 0.0
2018-Feb-11 13:28N 38°02' E 023°30'0 0.0
2018-Feb-11 12:58N 38°02' E 023°30'0 0.0
2018-Feb-11 12:28N 38°02' E 023°30'0 0.0
2018-Feb-11 11:58N 38°02' E 023°30'0 0.0
2018-Feb-11 11:28N 38°02' E 023°30'0 0.0
2018-Feb-11 10:58N 38°02' E 023°30'0 0.0
2018-Feb-11 10:28N 38°02' E 023°30'0 0.0
2018-Feb-11 09:58N 38°02' E 023°30'0 0.0
2018-Feb-11 09:28N 38°02' E 023°30'0 0.0
2018-Feb-11 08:58N 38°02' E 023°30'0 0.0
2018-Feb-11 08:28N 38°02' E 023°30'0 0.0
2018-Feb-11 07:58N 38°02' E 023°30'0 0.0
2018-Feb-11 07:28N 38°02' E 023°30'0 0.0
2018-Feb-11 06:58N 38°02' E 023°30'0 0.0
2018-Feb-11 06:28N 38°02' E 023°30'0 0.0
2018-Feb-11 05:58N 38°02' E 023°30'0 0.0
2018-Feb-11 05:28N 38°02' E 023°30'0 0.0
2018-Feb-11 04:58N 38°02' E 023°30'0 0.0
2018-Feb-11 04:28N 38°02' E 023°30'0 0.0
2018-Feb-11 03:58N 38°02' E 023°30'0 0.0
2018-Feb-11 03:28N 38°02' E 023°30'0 0.0
2018-Feb-11 02:58N 38°02' E 023°30'0 0.0
2018-Feb-11 02:28N 38°02' E 023°30'0 0.0
2018-Feb-11 01:58N 38°02' E 023°30'0 0.0
2018-Feb-11 01:28N 38°02' E 023°30'0 0.0
2018-Feb-11 00:58N 38°02' E 023°30'0 0.0
2018-Feb-11 00:28N 38°02' E 023°30'0 0.0
2018-Feb-10 23:58N 38°02' E 023°30'0 0.0
2018-Feb-10 23:28N 38°02' E 023°30'0 0.0
2018-Feb-10 22:58N 38°02' E 023°30'0 0.0
2018-Feb-10 22:28N 38°02' E 023°30'0 0.0
2018-Feb-10 21:58N 38°02' E 023°30'0 0.0
2018-Feb-10 21:28N 38°02' E 023°30'0 0.0
2018-Feb-10 20:58N 38°02' E 023°30'0 0.0
2018-Feb-10 20:28N 38°02' E 023°30'0 0.0
2018-Feb-10 19:58N 38°02' E 023°30'0 0.0
2018-Feb-10 19:28N 38°02' E 023°30'0 0.0
2018-Feb-10 18:58N 38°02' E 023°30'0 0.0
2018-Feb-10 18:28N 38°02' E 023°30'0 0.0
2018-Feb-10 17:58N 38°02' E 023°30'0 0.0
2018-Feb-10 17:28N 38°02' E 023°30'0 0.0
2018-Feb-10 16:58N 38°02' E 023°30'0 0.0
2018-Feb-10 16:28N 38°02' E 023°30'0 0.0
2018-Feb-10 15:58N 38°02' E 023°30'0 0.0
2018-Feb-10 15:28N 38°02' E 023°30'0 0.0
2018-Feb-10 14:58N 38°02' E 023°30'0 0.0
2018-Feb-10 14:28N 38°02' E 023°30'0 0.0
2018-Feb-10 13:58N 38°02' E 023°30'0 0.0
2018-Feb-10 13:28N 38°02' E 023°30'0 0.0
2018-Feb-10 12:58N 38°02' E 023°30'0 0.0
2018-Feb-10 12:28N 38°02' E 023°30'0 0.0
2018-Feb-10 11:58N 38°02' E 023°30'0 0.0
2018-Feb-10 11:28N 38°02' E 023°30'0 0.0
2018-Feb-10 10:58N 38°02' E 023°30'0 0.0
2018-Feb-10 10:28N 38°02' E 023°30'0 0.0
2018-Feb-10 09:58N 38°02' E 023°30'0 0.0
2018-Feb-10 09:28N 38°02' E 023°30'0 0.0
2018-Feb-10 08:58N 38°02' E 023°30'0 0.0
2018-Feb-10 08:28N 38°02' E 023°30'0 0.0
2018-Feb-10 07:58N 38°02' E 023°30'  

Dump ship's entire track history